createdAt,value
2019-05-23T00:00:22.039Z,13.00
2019-05-23T00:01:22.007Z,12.83
2019-05-23T00:02:22.005Z,12.97
2019-05-23T00:03:22.002Z,12.87
2019-05-23T00:04:22.001Z,12.85
2019-05-23T00:05:21.973Z,12.90
2019-05-23T00:06:21.967Z,12.90
2019-05-23T00:07:21.955Z,12.79
2019-05-23T00:08:21.961Z,12.86
2019-05-23T00:09:21.928Z,12.80
2019-05-23T00:10:21.925Z,12.79
2019-05-23T00:11:21.918Z,12.93
2019-05-23T00:12:21.917Z,12.97
2019-05-23T00:13:21.893Z,12.93
2019-05-23T00:14:21.872Z,12.85
2019-05-23T00:15:21.855Z,12.86
2019-05-23T00:16:21.845Z,12.86
2019-05-23T00:17:21.831Z,12.83
2019-05-23T00:18:21.855Z,12.82
2019-05-23T00:19:21.820Z,12.72
2019-05-23T00:20:21.817Z,12.70
2019-05-23T00:21:21.788Z,12.70
2019-05-23T00:22:21.791Z,12.67
2019-05-23T00:23:21.777Z,12.72
2019-05-23T00:24:21.761Z,12.75
2019-05-23T00:25:21.758Z,12.68
2019-05-23T00:26:21.750Z,12.78
2019-05-23T00:27:21.726Z,12.73
2019-05-23T00:28:21.721Z,12.76
2019-05-23T00:29:21.712Z,12.68
2019-05-23T00:30:21.703Z,12.68
2019-05-23T00:31:21.695Z,12.70
2019-05-23T00:32:21.675Z,12.79
2019-05-23T00:33:21.654Z,12.76
2019-05-23T00:34:21.651Z,12.73
2019-05-23T00:35:21.637Z,12.73
2019-05-23T00:36:21.626Z,12.70
2019-05-23T00:37:21.641Z,12.72
2019-05-23T00:38:21.602Z,12.68
2019-05-23T00:39:21.594Z,12.72
2019-05-23T00:40:21.584Z,12.76
2019-05-23T00:41:21.575Z,12.78
2019-05-23T00:42:21.580Z,12.82
2019-05-23T00:43:21.557Z,12.86
2019-05-23T00:44:21.536Z,12.83
2019-05-23T00:45:21.523Z,12.86
2019-05-23T00:46:21.519Z,12.90
2019-05-23T00:47:21.514Z,12.90
2019-05-23T00:48:21.503Z,12.82
2019-05-23T00:49:21.479Z,12.83
2019-05-23T00:50:21.463Z,12.78
2019-05-23T00:51:21.458Z,12.73
2019-05-23T00:52:21.447Z,12.70
2019-05-23T00:53:21.434Z,12.72
2019-05-23T00:54:21.446Z,12.70
2019-05-23T00:55:21.410Z,12.79
2019-05-23T00:56:21.404Z,12.68
2019-05-23T00:57:21.391Z,12.73
2019-05-23T00:58:21.387Z,12.73
2019-05-23T00:59:27.274Z,12.72
2019-05-23T01:00:22.349Z,12.72
2019-05-23T01:01:21.341Z,12.72
2019-05-23T01:02:21.337Z,12.78
2019-05-23T01:03:21.323Z,12.85
2019-05-23T01:04:21.317Z,12.73
2019-05-23T01:05:21.319Z,12.68
2019-05-23T01:06:21.291Z,12.72
2019-05-23T01:07:21.277Z,12.70
2019-05-23T01:08:21.292Z,12.61
2019-05-23T01:09:21.262Z,12.54
2019-05-23T01:10:21.241Z,12.47
2019-05-23T01:11:21.244Z,12.47
2019-05-23T01:12:21.229Z,12.49
2019-05-23T01:13:21.210Z,12.55
2019-05-23T01:14:21.211Z,12.43
2019-05-23T01:15:21.192Z,12.40
2019-05-23T01:16:21.201Z,12.40
2019-05-23T01:17:21.172Z,12.54
2019-05-23T01:18:21.147Z,12.54
2019-05-23T01:19:21.141Z,12.43
2019-05-23T01:20:21.139Z,12.37
2019-05-23T01:21:21.122Z,12.49
2019-05-23T01:22:21.119Z,12.49
2019-05-23T01:23:21.105Z,12.61
2019-05-23T01:24:21.081Z,12.55
2019-05-23T01:25:21.069Z,12.58
2019-05-23T01:26:21.065Z,12.57
2019-05-23T01:27:21.053Z,12.54
2019-05-23T01:28:21.232Z,12.42
2019-05-23T01:29:21.031Z,12.54
2019-05-23T01:30:21.017Z,12.46
2019-05-23T01:31:21.005Z,12.55
2019-05-23T01:32:21.004Z,12.57
2019-05-23T01:33:20.999Z,12.54
2019-05-23T01:34:20.991Z,12.55
2019-05-23T01:35:20.966Z,12.47
2019-05-23T01:36:20.953Z,12.53
2019-05-23T01:37:20.948Z,12.47
2019-05-23T01:38:20.943Z,12.45
2019-05-23T01:39:21.088Z,12.54
2019-05-23T01:40:20.959Z,12.60
2019-05-23T01:41:20.903Z,12.61
2019-05-23T01:42:20.881Z,12.50
2019-05-23T01:43:20.885Z,12.58
2019-05-23T01:44:20.872Z,12.53
2019-05-23T01:45:20.849Z,12.50
2019-05-23T01:46:20.849Z,12.49
2019-05-23T01:47:20.837Z,12.40
2019-05-23T01:48:20.822Z,12.37
2019-05-23T01:49:20.813Z,12.49
2019-05-23T01:50:20.804Z,12.36
2019-05-23T01:51:20.911Z,12.43
2019-05-23T01:52:20.780Z,12.40
2019-05-23T01:53:20.761Z,12.37
2019-05-23T01:54:20.813Z,12.32
2019-05-23T01:55:20.743Z,12.20
2019-05-23T01:56:20.737Z,12.21
2019-05-23T01:57:20.719Z,12.07
2019-05-23T01:58:20.707Z,12.10
2019-05-23T01:59:20.695Z,12.07
2019-05-23T02:00:20.686Z,12.21
2019-05-23T02:01:20.670Z,12.21
2019-05-23T02:02:20.657Z,12.22
2019-05-23T02:03:20.652Z,12.21
2019-05-23T02:04:20.639Z,12.20
2019-05-23T02:05:20.629Z,12.12
2019-05-23T02:06:20.625Z,12.09
2019-05-23T02:07:20.635Z,12.13
2019-05-23T02:08:20.589Z,12.00
2019-05-23T02:09:20.599Z,12.03
2019-05-23T02:10:20.573Z,12.09
2019-05-23T02:11:27.715Z,11.99
2019-05-23T02:13:13.990Z,11.97
2019-05-23T02:14:14.072Z,12.06
2019-05-23T02:15:13.961Z,12.03
2019-05-23T02:16:13.946Z,12.03
2019-05-23T02:17:13.942Z,12.04
2019-05-23T02:18:13.920Z,12.02
2019-05-23T02:19:14.022Z,12.10
2019-05-23T02:20:13.903Z,12.07
2019-05-23T02:21:13.891Z,12.09
2019-05-23T02:22:13.880Z,12.12
2019-05-23T02:23:13.872Z,12.18
2019-05-23T02:24:13.896Z,12.18
2019-05-23T02:25:13.901Z,12.20
2019-05-23T02:26:13.834Z,12.12
2019-05-23T02:27:13.816Z,12.17
2019-05-23T02:28:13.807Z,12.21
2019-05-23T02:29:13.797Z,12.12
2019-05-23T02:30:32.237Z,12.09
2019-05-23T02:31:14.770Z,12.12
2019-05-23T02:32:13.765Z,12.06
2019-05-23T02:33:13.761Z,12.06
2019-05-23T02:34:13.751Z,11.90
2019-05-23T02:35:13.731Z,11.83
2019-05-23T02:36:13.717Z,11.86
2019-05-23T02:37:13.709Z,11.83
2019-05-23T02:38:13.698Z,11.84
2019-05-23T02:39:13.687Z,11.87
2019-05-23T02:40:13.670Z,11.83
2019-05-23T02:41:13.667Z,11.83
2019-05-23T02:42:13.653Z,11.83
2019-05-23T02:43:13.639Z,11.88
2019-05-23T02:44:13.632Z,11.95
2019-05-23T02:45:13.617Z,11.87
2019-05-23T02:46:13.611Z,12.00
2019-05-23T02:47:13.613Z,11.88
2019-05-23T02:48:13.585Z,11.83
2019-05-23T02:49:13.574Z,11.83
2019-05-23T02:50:13.569Z,11.70
2019-05-23T02:51:13.571Z,11.80
2019-05-23T02:52:13.544Z,11.72
2019-05-23T02:53:13.539Z,11.77
2019-05-23T02:54:13.514Z,11.77
2019-05-23T02:55:13.514Z,11.77
2019-05-23T02:56:13.519Z,11.84
2019-05-23T02:57:13.490Z,11.73
2019-05-23T02:58:13.468Z,11.72
2019-05-23T02:59:13.458Z,11.70
2019-05-23T03:00:13.448Z,11.72
2019-05-23T03:01:13.458Z,11.70
2019-05-23T03:02:13.427Z,11.72
2019-05-23T03:03:13.416Z,11.70
2019-05-23T03:04:13.476Z,11.73
2019-05-23T03:05:13.394Z,11.70
2019-05-23T03:06:13.375Z,11.83
2019-05-23T03:07:13.378Z,11.86
2019-05-23T03:08:13.361Z,11.80
2019-05-23T03:09:13.347Z,11.81
2019-05-23T03:10:13.340Z,11.77
2019-05-23T03:11:13.323Z,11.84
2019-05-23T03:12:13.314Z,11.90
2019-05-23T03:13:13.302Z,11.88
2019-05-23T03:14:13.298Z,11.87
2019-05-23T03:15:13.276Z,11.87
2019-05-23T03:16:13.283Z,11.78
2019-05-23T03:17:13.257Z,11.80
2019-05-23T03:18:13.246Z,11.77
2019-05-23T03:19:13.240Z,11.75
2019-05-23T03:20:13.221Z,11.68
2019-05-23T03:21:13.205Z,11.66
2019-05-23T03:22:13.195Z,11.60
2019-05-23T03:23:13.211Z,11.63
2019-05-23T03:24:13.183Z,11.68
2019-05-23T03:25:13.175Z,11.68
2019-05-23T03:26:13.159Z,11.66
2019-05-23T03:27:13.140Z,11.57
2019-05-23T03:28:13.233Z,11.62
2019-05-23T03:29:13.118Z,11.68
2019-05-23T03:30:13.135Z,11.65
2019-05-23T03:31:28.754Z,11.70
2019-05-23T03:32:14.099Z,11.73
2019-05-23T03:33:13.111Z,11.75
2019-05-23T03:34:13.063Z,11.68
2019-05-23T03:35:13.115Z,11.66
2019-05-23T03:36:13.059Z,11.59
2019-05-23T03:37:13.030Z,11.55
2019-05-23T03:38:13.014Z,11.52
2019-05-23T03:39:12.998Z,11.45
2019-05-23T03:40:12.994Z,11.52
2019-05-23T03:41:12.989Z,11.41
2019-05-23T03:42:12.975Z,11.43
2019-05-23T03:43:12.962Z,11.45
2019-05-23T03:44:12.956Z,11.48
2019-05-23T03:45:12.937Z,11.48
2019-05-23T03:46:12.933Z,11.40
2019-05-23T03:47:12.917Z,11.47
2019-05-23T03:48:12.900Z,11.43
2019-05-23T03:49:12.893Z,11.44
2019-05-23T03:50:12.878Z,11.51
2019-05-23T03:51:12.910Z,11.45
2019-05-23T03:52:12.862Z,11.43
2019-05-23T03:53:12.863Z,11.45
2019-05-23T03:54:12.860Z,11.37
2019-05-23T03:55:12.910Z,11.35
2019-05-23T03:56:12.832Z,11.32
2019-05-23T03:57:12.812Z,11.27
2019-05-23T03:58:12.809Z,11.23
2019-05-23T03:59:12.811Z,11.18
2019-05-23T04:00:12.774Z,11.10
2019-05-23T04:01:12.881Z,11.15
2019-05-23T04:02:12.745Z,11.08
2019-05-23T04:03:12.761Z,11.07
2019-05-23T04:04:12.762Z,11.11
2019-05-23T04:05:12.720Z,11.22
2019-05-23T04:06:12.713Z,11.02
2019-05-23T04:07:12.690Z,10.94
2019-05-23T04:08:12.679Z,10.89
2019-05-23T04:09:12.692Z,10.92
2019-05-23T04:10:12.747Z,10.89
2019-05-23T04:11:12.716Z,10.90
2019-05-23T04:12:12.647Z,10.97
2019-05-23T04:13:12.725Z,10.94
2019-05-23T04:14:12.613Z,10.90
2019-05-23T04:15:12.607Z,10.92
2019-05-23T04:16:12.622Z,10.90
2019-05-23T04:17:12.585Z,10.90
2019-05-23T04:18:12.568Z,10.93
2019-05-23T04:19:12.650Z,10.92
2019-05-23T04:20:12.566Z,11.00
2019-05-23T04:21:12.552Z,11.02
2019-05-23T04:22:12.522Z,11.08
2019-05-23T04:23:12.537Z,11.08
2019-05-23T04:24:12.504Z,11.10
2019-05-23T04:25:12.489Z,11.15
2019-05-23T04:26:12.492Z,11.19
2019-05-23T04:27:12.479Z,11.22
2019-05-23T04:28:12.514Z,11.18
2019-05-23T04:29:12.447Z,11.22
2019-05-23T04:30:12.453Z,11.25
2019-05-23T04:31:13.385Z,11.15
2019-05-23T04:32:12.421Z,11.11
2019-05-23T04:33:12.410Z,11.07
2019-05-23T04:34:12.453Z,11.07
2019-05-23T04:35:12.386Z,11.05
2019-05-23T04:36:12.421Z,10.93
2019-05-23T04:37:12.378Z,10.89
2019-05-23T04:38:12.357Z,10.99
2019-05-23T04:39:12.353Z,11.07
2019-05-23T04:40:12.325Z,11.05
2019-05-23T04:41:12.325Z,11.08
2019-05-23T04:42:12.312Z,11.05
2019-05-23T04:43:12.345Z,11.05
2019-05-23T04:44:12.293Z,10.99
2019-05-23T04:45:12.268Z,10.99
2019-05-23T04:46:12.260Z,11.04
2019-05-23T04:47:12.251Z,10.97
2019-05-23T04:48:12.263Z,10.92
2019-05-23T04:49:12.238Z,10.90
2019-05-23T04:50:12.211Z,10.89
2019-05-23T04:51:12.240Z,10.89
2019-05-23T04:52:12.192Z,10.86
2019-05-23T04:53:12.191Z,10.81
2019-05-23T04:54:12.170Z,10.81
2019-05-23T04:55:12.166Z,10.89
2019-05-23T04:56:12.184Z,10.92
2019-05-23T04:57:12.142Z,10.89
2019-05-23T04:58:12.130Z,10.89
2019-05-23T04:59:12.112Z,10.94
2019-05-23T05:00:12.116Z,11.00
2019-05-23T05:01:12.104Z,11.05
2019-05-23T05:02:25.711Z,10.96
2019-05-23T05:03:17.028Z,11.02
2019-05-23T05:04:13.061Z,11.04
2019-05-23T05:05:12.067Z,11.07
2019-05-23T05:06:12.047Z,11.05
2019-05-23T05:07:12.059Z,11.10
2019-05-23T05:08:12.193Z,11.14
2019-05-23T05:09:12.006Z,11.08
2019-05-23T05:10:11.997Z,11.15
2019-05-23T05:11:11.986Z,11.18
2019-05-23T05:12:12.004Z,11.23
2019-05-23T05:13:11.966Z,11.23
2019-05-23T05:14:11.949Z,11.40
2019-05-23T05:15:11.947Z,11.32
2019-05-23T05:16:11.926Z,11.37
2019-05-23T05:17:11.923Z,11.45
2019-05-23T05:18:11.910Z,11.35
2019-05-23T05:19:11.902Z,11.37
2019-05-23T05:20:11.881Z,11.43
2019-05-23T05:21:11.883Z,11.45
2019-05-23T05:22:11.879Z,11.48
2019-05-23T05:23:11.865Z,11.35
2019-05-23T05:24:11.839Z,11.50
2019-05-23T05:25:11.834Z,11.45
2019-05-23T05:26:11.818Z,11.43
2019-05-23T05:27:11.811Z,11.44
2019-05-23T05:28:11.804Z,11.52
2019-05-23T05:29:11.777Z,11.59
2019-05-23T05:30:11.775Z,11.57
2019-05-23T05:31:11.777Z,11.62
2019-05-23T05:32:11.752Z,11.68
2019-05-23T05:33:11.738Z,11.70
2019-05-23T05:34:11.732Z,11.72
2019-05-23T05:35:11.722Z,11.78
2019-05-23T05:36:11.703Z,11.84
2019-05-23T05:37:11.691Z,11.86
2019-05-23T05:38:11.681Z,11.86
2019-05-23T05:39:11.667Z,11.87
2019-05-23T05:40:11.674Z,11.90
2019-05-23T05:41:11.660Z,11.95
2019-05-23T05:42:11.639Z,11.97
2019-05-23T05:43:11.621Z,12.02
2019-05-23T05:44:12.069Z,12.02
2019-05-23T05:45:11.720Z,12.02
2019-05-23T05:46:11.599Z,12.06
2019-05-23T05:47:11.592Z,12.00
2019-05-23T05:48:11.565Z,12.04
2019-05-23T05:49:11.554Z,12.02
2019-05-23T05:50:11.566Z,11.95
2019-05-23T05:51:11.548Z,12.12
2019-05-23T05:52:11.529Z,12.06
2019-05-23T05:53:11.512Z,12.04
2019-05-23T05:54:11.511Z,12.12
2019-05-23T05:55:11.490Z,12.22
2019-05-23T05:56:11.484Z,12.12
2019-05-23T05:57:11.473Z,12.10
2019-05-23T05:58:11.458Z,12.18
2019-05-23T05:59:11.472Z,12.17
2019-05-23T06:00:13.112Z,12.12
2019-05-23T06:01:11.428Z,12.31
2019-05-23T06:02:11.415Z,12.22
2019-05-23T06:03:11.521Z,12.27
2019-05-23T06:04:11.490Z,12.35
2019-05-23T06:05:11.373Z,12.27
2019-05-23T06:06:11.379Z,12.37
2019-05-23T06:07:11.349Z,12.28
2019-05-23T06:08:11.367Z,12.36
2019-05-23T06:09:11.342Z,12.39
2019-05-23T06:10:11.319Z,12.39
2019-05-23T06:11:11.319Z,12.37
2019-05-23T06:12:11.294Z,12.42
2019-05-23T06:13:11.296Z,12.54
2019-05-23T06:14:11.281Z,12.47
2019-05-23T06:15:11.271Z,12.54
2019-05-23T06:16:11.251Z,12.55
2019-05-23T06:17:11.249Z,12.61
2019-05-23T06:18:11.237Z,12.54
2019-05-23T06:19:11.225Z,12.57
2019-05-23T06:20:11.214Z,12.57
2019-05-23T06:21:11.330Z,12.68
2019-05-23T06:22:11.242Z,12.70
2019-05-23T06:23:11.187Z,12.67
2019-05-23T06:24:11.185Z,12.79
2019-05-23T06:25:11.770Z,12.86
2019-05-23T06:26:11.159Z,12.91
2019-05-23T06:27:11.125Z,12.86
2019-05-23T06:28:11.121Z,12.85
2019-05-23T06:29:11.111Z,12.97
2019-05-23T06:30:11.097Z,13.00
2019-05-23T06:31:11.102Z,12.98
2019-05-23T06:32:11.074Z,13.04
2019-05-23T06:33:22.769Z,13.04
2019-05-23T06:34:12.083Z,12.94
2019-05-23T06:35:11.193Z,13.03
2019-05-23T06:36:11.030Z,13.04
2019-05-23T06:37:11.026Z,13.16
2019-05-23T06:38:11.001Z,13.23
2019-05-23T06:39:11.007Z,13.23
2019-05-23T06:40:10.996Z,13.30
2019-05-23T06:41:10.978Z,13.28
2019-05-23T06:42:10.969Z,13.27
2019-05-23T06:43:10.955Z,13.35
2019-05-23T06:44:10.945Z,13.33
2019-05-23T06:45:11.034Z,13.27
2019-05-23T06:46:10.923Z,13.30
2019-05-23T06:47:10.909Z,13.33
2019-05-23T06:48:10.902Z,13.35
2019-05-23T06:49:10.883Z,13.30
2019-05-23T06:50:10.864Z,13.39
2019-05-23T06:51:10.862Z,13.41
2019-05-23T06:52:10.908Z,13.53
2019-05-23T06:53:10.881Z,13.41
2019-05-23T06:54:10.833Z,13.47
2019-05-23T06:55:10.819Z,13.59
2019-05-23T06:56:10.815Z,13.59
2019-05-23T06:57:10.790Z,13.65
2019-05-23T06:58:10.808Z,13.68
2019-05-23T06:59:10.771Z,13.78
2019-05-23T07:00:10.774Z,13.72
2019-05-23T07:01:10.751Z,13.83
2019-05-23T07:02:10.745Z,13.86
2019-05-23T07:03:10.810Z,13.85
2019-05-23T07:04:10.713Z,13.86
2019-05-23T07:05:10.739Z,13.83
2019-05-23T07:06:10.735Z,13.86
2019-05-23T07:07:10.684Z,13.86
2019-05-23T07:08:10.671Z,13.87
2019-05-23T07:09:10.656Z,13.93
2019-05-23T07:10:10.663Z,13.90
2019-05-23T07:11:10.644Z,13.87
2019-05-23T07:12:10.685Z,13.89
2019-05-23T07:13:10.621Z,14.03
2019-05-23T07:14:10.599Z,14.10
2019-05-23T07:15:10.590Z,14.12
2019-05-23T07:16:10.581Z,14.18
2019-05-23T07:17:10.582Z,14.18
2019-05-23T07:18:10.593Z,14.23
2019-05-23T07:19:10.546Z,14.26
2019-05-23T07:20:10.537Z,14.23
2019-05-23T07:21:10.531Z,14.32
2019-05-23T07:22:10.553Z,14.22
2019-05-23T07:23:10.502Z,14.36
2019-05-23T07:24:10.496Z,14.36
2019-05-23T07:25:10.476Z,14.40
2019-05-23T07:26:10.471Z,14.41
2019-05-23T07:27:10.451Z,14.41
2019-05-23T07:28:10.454Z,14.43
2019-05-23T07:29:10.437Z,14.48
2019-05-23T07:30:10.412Z,14.35
2019-05-23T07:31:10.439Z,14.47
2019-05-23T07:32:10.399Z,14.37
2019-05-23T07:33:10.388Z,14.51
2019-05-23T07:34:10.374Z,14.58
2019-05-23T07:35:10.364Z,14.48
2019-05-23T07:36:10.354Z,14.44
2019-05-23T07:37:10.340Z,14.37
2019-05-23T07:38:10.344Z,14.43
2019-05-23T07:39:11.713Z,14.47
2019-05-23T07:40:10.306Z,14.47
2019-05-23T07:41:10.300Z,14.53
2019-05-23T07:42:10.285Z,14.68
2019-05-23T07:43:10.350Z,14.69
2019-05-23T07:44:10.308Z,14.65
2019-05-23T07:45:10.257Z,14.69
2019-05-23T07:46:10.239Z,14.73
2019-05-23T07:47:10.223Z,14.91
2019-05-23T07:48:10.225Z,14.89
2019-05-23T07:49:10.226Z,14.84
2019-05-23T07:50:10.256Z,14.81
2019-05-23T07:51:10.194Z,14.89
2019-05-23T07:52:10.172Z,14.82
2019-05-23T07:53:10.159Z,14.91
2019-05-23T07:54:10.161Z,14.79
2019-05-23T07:55:10.168Z,14.91
2019-05-23T07:56:10.134Z,14.82
2019-05-23T07:57:10.111Z,14.78
2019-05-23T07:58:13.448Z,14.78
2019-05-23T07:59:10.097Z,14.70
2019-05-23T08:00:10.084Z,14.65
2019-05-23T08:01:10.073Z,14.65
2019-05-23T08:02:10.058Z,14.77
2019-05-23T08:03:10.054Z,14.77
2019-05-23T08:04:21.188Z,14.85
2019-05-23T08:05:11.041Z,14.99
2019-05-23T08:06:10.028Z,15.07
2019-05-23T08:07:10.009Z,15.22
2019-05-23T08:08:10.172Z,15.42
2019-05-23T08:09:09.985Z,15.51
2019-05-23T08:10:10.041Z,15.58
2019-05-23T08:11:09.977Z,15.59
2019-05-23T08:12:09.961Z,15.57
2019-05-23T08:13:09.941Z,15.49
2019-05-23T08:14:12.094Z,15.49
2019-05-23T08:15:09.956Z,15.52
2019-05-23T08:16:09.904Z,15.54
2019-05-23T08:17:09.904Z,15.55
2019-05-23T08:18:09.896Z,15.61
2019-05-23T08:19:09.893Z,15.65
2019-05-23T08:20:09.862Z,15.68
2019-05-23T08:21:09.845Z,15.73
2019-05-23T08:22:09.844Z,15.65
2019-05-23T08:23:09.834Z,15.65
2019-05-23T08:24:09.818Z,15.65
2019-05-23T08:25:09.809Z,15.61
2019-05-23T08:26:09.791Z,15.70
2019-05-23T08:27:09.784Z,15.68
2019-05-23T08:28:09.782Z,15.77
2019-05-23T08:29:25.429Z,15.70
2019-05-23T08:30:10.799Z,15.72
2019-05-23T08:31:09.744Z,15.68
2019-05-23T08:32:09.726Z,15.67
2019-05-23T08:33:09.731Z,15.59
2019-05-23T08:34:09.709Z,15.65
2019-05-23T08:35:09.710Z,15.67
2019-05-23T08:36:09.698Z,15.62
2019-05-23T08:37:09.668Z,15.67
2019-05-23T08:38:09.663Z,15.68
2019-05-23T08:39:09.673Z,15.79
2019-05-23T08:40:09.635Z,15.80
2019-05-23T08:41:09.688Z,15.80
2019-05-23T08:42:09.636Z,15.91
2019-05-23T08:43:09.612Z,15.91
2019-05-23T08:44:11.594Z,15.94
2019-05-23T08:45:09.588Z,16.12
2019-05-23T08:46:09.584Z,16.16
2019-05-23T08:47:09.574Z,16.16
2019-05-23T08:48:09.560Z,16.10
2019-05-23T08:49:09.545Z,16.10
2019-05-23T08:50:09.535Z,16.15
2019-05-23T08:51:09.531Z,16.17
2019-05-23T08:52:09.512Z,16.33
2019-05-23T08:53:09.546Z,16.31
2019-05-23T08:54:09.523Z,16.28
2019-05-23T08:55:09.489Z,16.33
2019-05-23T08:56:18.377Z,16.32
2019-05-23T08:57:10.462Z,16.32
2019-05-23T08:58:09.466Z,16.43
2019-05-23T08:59:09.442Z,16.41
2019-05-23T09:00:09.416Z,16.57
2019-05-23T09:01:09.436Z,16.60
2019-05-23T09:02:09.401Z,16.56
2019-05-23T09:03:09.413Z,16.58
2019-05-23T09:04:09.379Z,16.78
2019-05-23T09:05:09.363Z,16.76
2019-05-23T09:06:09.354Z,16.79
2019-05-23T09:07:09.379Z,16.84
2019-05-23T09:08:09.349Z,16.89
2019-05-23T09:09:27.782Z,16.75
2019-05-23T09:10:10.294Z,16.76
2019-05-23T09:11:09.298Z,16.84
2019-05-23T09:12:09.278Z,16.78
2019-05-23T09:13:09.280Z,16.86
2019-05-23T09:14:09.255Z,16.89
2019-05-23T09:15:10.329Z,16.90
2019-05-23T09:16:09.262Z,16.87
2019-05-23T09:17:09.216Z,16.86
2019-05-23T09:18:09.208Z,16.90
2019-05-23T09:19:09.203Z,16.87
2019-05-23T09:20:09.228Z,16.89
2019-05-23T09:21:09.190Z,16.90
2019-05-23T09:22:09.161Z,17.02
2019-05-23T09:23:09.155Z,17.12
2019-05-23T09:24:09.143Z,17.19
2019-05-23T09:25:09.130Z,17.15
2019-05-23T09:26:09.117Z,17.12
2019-05-23T09:27:09.140Z,17.15
2019-05-23T09:28:09.099Z,16.99
2019-05-23T09:29:09.085Z,17.14
2019-05-23T09:30:09.078Z,17.12
2019-05-23T09:31:09.065Z,17.27
2019-05-23T09:32:09.059Z,17.39
2019-05-23T09:33:09.079Z,17.46
2019-05-23T09:34:09.027Z,17.65
2019-05-23T09:35:20.137Z,17.76
2019-05-23T09:36:10.007Z,17.76
2019-05-23T09:37:09.003Z,17.85
2019-05-23T09:38:08.986Z,17.72
2019-05-23T09:39:08.975Z,17.78
2019-05-23T09:40:08.961Z,17.70
2019-05-23T09:41:08.963Z,17.49
2019-05-23T09:42:12.025Z,17.41
2019-05-23T09:43:08.933Z,17.36
2019-05-23T09:44:08.926Z,17.46
2019-05-23T09:45:08.910Z,17.41
2019-05-23T09:46:08.893Z,17.42
2019-05-23T09:47:08.906Z,17.52
2019-05-23T09:48:08.947Z,17.48
2019-05-23T09:49:11.234Z,17.48
2019-05-23T09:50:08.848Z,17.46
2019-05-23T09:51:08.834Z,17.57
2019-05-23T09:52:09.628Z,17.54
2019-05-23T09:53:08.813Z,17.52
2019-05-23T09:54:08.805Z,17.57
2019-05-23T09:55:08.792Z,17.57
2019-05-23T09:56:08.799Z,17.60
2019-05-23T09:57:08.882Z,17.60
2019-05-23T09:58:08.840Z,17.52
2019-05-23T09:59:08.747Z,17.49
2019-05-23T10:00:08.802Z,17.52
2019-05-23T10:01:08.793Z,17.71
2019-05-23T10:02:08.730Z,17.63
2019-05-23T10:03:08.723Z,17.67
2019-05-23T10:04:08.689Z,17.68
2019-05-23T10:05:08.691Z,17.64
2019-05-23T10:06:08.665Z,17.67
2019-05-23T10:07:08.654Z,17.68
2019-05-23T10:08:08.645Z,17.63
2019-05-23T10:09:08.642Z,17.71
2019-05-23T10:10:08.616Z,17.72
2019-05-23T10:11:08.613Z,17.80
2019-05-23T10:12:08.618Z,17.78
2019-05-23T10:13:08.586Z,17.74
2019-05-23T10:14:08.587Z,17.82
2019-05-23T10:15:08.560Z,17.83
2019-05-23T10:16:08.666Z,17.79
2019-05-23T10:17:08.542Z,17.83
2019-05-23T10:18:08.663Z,17.87
2019-05-23T10:19:08.515Z,17.94
2019-05-23T10:20:08.509Z,18.08
2019-05-23T10:21:08.498Z,18.15
2019-05-23T10:22:08.509Z,18.13
2019-05-23T10:23:08.485Z,18.16
2019-05-23T10:24:08.490Z,18.18
2019-05-23T10:25:08.450Z,18.25
2019-05-23T10:26:08.453Z,18.29
2019-05-23T10:27:08.427Z,18.41
2019-05-23T10:28:08.419Z,18.65
2019-05-23T10:29:08.407Z,18.93
2019-05-23T10:30:08.397Z,19.11
2019-05-23T10:31:08.377Z,19.09
2019-05-23T10:32:08.393Z,19.14
2019-05-23T10:33:11.931Z,18.99
2019-05-23T10:34:08.355Z,18.95
2019-05-23T10:35:08.354Z,18.92
2019-05-23T10:36:08.328Z,18.86
2019-05-23T10:37:08.329Z,18.86
2019-05-23T10:38:08.342Z,18.86
2019-05-23T10:39:08.295Z,18.89
2019-05-23T10:40:08.277Z,18.93
2019-05-23T10:41:08.288Z,18.93
2019-05-23T10:42:08.256Z,19.02
2019-05-23T10:43:08.250Z,19.08
2019-05-23T10:44:08.254Z,19.04
2019-05-23T10:45:08.221Z,19.02
2019-05-23T10:46:08.222Z,18.96
2019-05-23T10:47:08.205Z,18.99
2019-05-23T10:48:08.195Z,19.08
2019-05-23T10:49:08.175Z,19.18
2019-05-23T10:50:09.976Z,19.22
2019-05-23T10:51:08.169Z,19.41
2019-05-23T10:52:08.150Z,19.73
2019-05-23T10:53:08.138Z,20.21
2019-05-23T10:54:08.125Z,20.87
2019-05-23T10:55:08.235Z,21.55
2019-05-23T10:56:08.099Z,22.06
2019-05-23T10:57:08.092Z,22.17
2019-05-23T10:58:08.077Z,22.55
2019-05-23T10:59:08.194Z,22.90
2019-05-23T11:00:08.058Z,23.08
2019-05-23T11:01:08.046Z,23.37
2019-05-23T11:02:08.036Z,23.50
2019-05-23T11:03:08.022Z,23.71
2019-05-23T11:04:08.006Z,23.77
2019-05-23T11:05:12.914Z,23.56
2019-05-23T11:06:16.073Z,23.21
2019-05-23T11:07:08.994Z,22.98
2019-05-23T11:08:07.975Z,22.88
2019-05-23T11:09:07.963Z,22.94
2019-05-23T11:10:07.947Z,22.84
2019-05-23T11:11:07.935Z,22.91
2019-05-23T11:12:08.520Z,22.85
2019-05-23T11:13:07.925Z,22.84
2019-05-23T11:14:08.871Z,22.68
2019-05-23T11:15:07.891Z,22.69
2019-05-23T11:16:07.878Z,22.85
2019-05-23T11:17:07.871Z,23.05
2019-05-23T11:18:07.861Z,23.17
2019-05-23T11:19:07.893Z,23.37
2019-05-23T11:20:07.838Z,23.43
2019-05-23T11:21:07.819Z,23.40
2019-05-23T11:22:07.813Z,23.36
2019-05-23T11:23:07.820Z,23.40
2019-05-23T11:24:07.787Z,23.31
2019-05-23T11:25:07.811Z,23.41
2019-05-23T11:26:07.780Z,23.21
2019-05-23T11:27:07.759Z,23.09
2019-05-23T11:28:07.886Z,23.18
2019-05-23T11:29:07.740Z,23.23
2019-05-23T11:30:07.725Z,23.39
2019-05-23T11:31:07.740Z,23.47
2019-05-23T11:32:07.709Z,23.39
2019-05-23T11:33:07.703Z,23.23
2019-05-23T11:34:07.691Z,23.21
2019-05-23T11:35:07.663Z,23.17
2019-05-23T11:36:07.656Z,23.47
2019-05-23T11:37:07.640Z,23.68
2019-05-23T11:38:07.650Z,23.76
2019-05-23T11:39:07.620Z,23.78
2019-05-23T11:40:07.606Z,23.80
2019-05-23T11:41:07.604Z,23.81
2019-05-23T11:42:07.621Z,23.86
2019-05-23T11:43:07.636Z,24.24
2019-05-23T11:44:07.571Z,24.26
2019-05-23T11:45:07.553Z,24.30
2019-05-23T11:46:07.550Z,24.30
2019-05-23T11:47:07.547Z,24.32
2019-05-23T11:48:07.520Z,24.35
2019-05-23T11:49:07.521Z,24.38
2019-05-23T11:50:07.545Z,24.39
2019-05-23T11:51:07.497Z,24.32
2019-05-23T11:52:07.495Z,24.08
2019-05-23T11:53:07.470Z,23.91
2019-05-23T11:54:09.596Z,23.98
2019-05-23T11:55:07.448Z,23.92
2019-05-23T11:56:07.449Z,23.84
2019-05-23T11:57:07.440Z,23.80
2019-05-23T11:58:07.415Z,23.39
2019-05-23T11:59:07.441Z,22.81
2019-05-23T12:00:07.399Z,22.65
2019-05-23T12:01:07.439Z,22.66
2019-05-23T12:02:07.375Z,22.55
2019-05-23T12:03:07.358Z,22.50
2019-05-23T12:04:07.406Z,22.36
2019-05-23T12:05:07.356Z,22.14
2019-05-23T12:06:07.340Z,22.08
2019-05-23T12:07:07.321Z,21.85
2019-05-23T12:08:07.306Z,21.58
2019-05-23T12:09:07.308Z,21.30
2019-05-23T12:10:07.339Z,21.12
2019-05-23T12:11:07.272Z,20.93
2019-05-23T12:12:07.261Z,20.69
2019-05-23T12:13:07.246Z,20.65
2019-05-23T12:14:07.238Z,20.56
2019-05-23T12:15:07.225Z,20.47
2019-05-23T12:16:07.233Z,20.44
2019-05-23T12:17:07.212Z,20.43
2019-05-23T12:18:07.197Z,20.29
2019-05-23T12:19:07.178Z,20.24
2019-05-23T12:20:07.196Z,20.19
2019-05-23T12:21:07.174Z,20.19
2019-05-23T12:22:07.155Z,20.19
2019-05-23T12:23:10.769Z,20.21
2019-05-23T12:24:07.134Z,20.14
2019-05-23T12:25:21.412Z,20.14
2019-05-23T12:26:08.127Z,20.10
2019-05-23T12:27:07.105Z,20.10
2019-05-23T12:28:07.081Z,20.06
2019-05-23T12:29:07.083Z,20.06
2019-05-23T12:30:07.086Z,20.03
2019-05-23T12:31:07.060Z,20.02
2019-05-23T12:32:07.050Z,20.07
2019-05-23T12:33:07.035Z,20.04
2019-05-23T12:34:07.026Z,19.89
2019-05-23T12:35:11.245Z,19.91
2019-05-23T12:36:07.003Z,19.86
2019-05-23T12:37:18.385Z,20.04
2019-05-23T12:38:08.034Z,20.02
2019-05-23T12:39:06.965Z,19.82
2019-05-23T12:40:06.960Z,19.71
2019-05-23T12:41:06.949Z,19.77
2019-05-23T12:42:06.938Z,19.77
2019-05-23T12:43:06.956Z,19.88
2019-05-23T12:44:06.919Z,19.86
2019-05-23T12:45:06.909Z,19.76
2019-05-23T12:46:06.903Z,19.71
2019-05-23T12:47:06.885Z,19.69
2019-05-23T12:48:06.888Z,19.71
2019-05-23T12:49:06.860Z,19.70
2019-05-23T12:50:06.873Z,19.79
2019-05-23T12:51:06.839Z,19.84
2019-05-23T12:52:06.873Z,19.85
2019-05-23T12:53:06.810Z,19.88